Time;durP1;ratioP1;P1;durP2;ratioP2;P2;SDS_P1;SDS_P2;PMS_P1;PMS_P2;Temp;Humidity;BMP_temperature;BMP_pressure;BME280_temperature;BME280_humidity;BME280_pressure;Samples;Min_cycle;Max_cycle;Signal;HPM_P1;HPM_P2
2022/09/29 00:00:51;;;;;;;137.40;129.70;;;9.40;99.90;;;;;;5073671;28;20511;-65
2022/09/29 00:03:17;;;;;;;139.40;131.60;;;9.50;99.90;;;;;;5071459;28;20465;-64
2022/09/29 00:05:54;;;;;;;130.93;123.63;;;9.40;99.90;;;;;;5088984;28;20481;-63
2022/09/29 00:08:22;;;;;;;125.93;118.57;;;9.40;99.90;;;;;;5078442;28;20488;-63
2022/09/29 00:10:48;;;;;;;133.45;126.13;;;9.40;99.90;;;;;;5091387;28;20632;-63
2022/09/29 00:13:14;;;;;;;134.32;126.93;;;9.30;99.90;;;;;;5091174;28;20421;-63
2022/09/29 00:15:40;;;;;;;137.70;130.00;;;9.30;99.90;;;;;;5091734;28;20512;-63
2022/09/29 00:18:07;;;;;;;135.95;128.35;;;9.30;99.90;;;;;;5090838;28;20808;-64
2022/09/29 00:20:33;;;;;;;139.20;131.57;;;9.30;99.90;;;;;;5091649;28;20438;-64
2022/09/29 00:22:58;;;;;;;139.73;131.93;;;9.30;99.90;;;;;;5092077;28;20440;-63
2022/09/29 00:25:24;;;;;;;135.70;128.13;;;9.30;99.90;;;;;;5094336;28;20378;-63
2022/09/29 00:27:50;;;;;;;139.43;131.57;;;9.30;99.90;;;;;;5091957;28;20813;-63
2022/09/29 00:30:15;;;;;;;134.27;126.72;;;9.30;99.90;;;;;;5092969;28;20393;-63
2022/09/29 00:32:41;;;;;;;136.73;128.93;;;9.30;99.90;;;;;;5091520;28;20382;-64
2022/09/29 00:35:09;;;;;;;138.83;131.13;;;9.20;99.90;;;;;;5091930;28;20414;-64
2022/09/29 00:37:35;;;;;;;135.38;127.78;;;9.20;99.90;;;;;;5090680;28;20393;-64
2022/09/29 00:40:03;;;;;;;139.57;131.87;;;9.20;99.90;;;;;;5088454;28;20471;-64
2022/09/29 00:42:30;;;;;;;143.25;135.30;;;9.20;99.90;;;;;;5089891;28;20382;-64
2022/09/29 00:45:21;;;;;;;139.38;131.73;;;9.20;99.90;;;;;;5089402;28;20370;-64
2022/09/29 00:48:09;;;;;;;139.70;131.83;;;9.10;99.90;;;;;;5090717;28;20415;-64
2022/09/29 00:50:47;;;;;;;142.57;134.57;;;9.10;99.90;;;;;;5090591;28;20851;-63
2022/09/29 00:53:15;;;;;;;133.10;125.70;;;9.10;99.90;;;;;;5091895;28;20466;-63
2022/09/29 00:55:47;;;;;;;136.57;128.82;;;9.10;99.90;;;;;;5093600;28;20386;-63
2022/09/29 00:58:21;;;;;;;145.82;137.45;;;9.00;99.90;;;;;;5092695;28;20386;-63
2022/09/29 01:00:47;;;;;;;138.85;131.23;;;9.00;99.90;;;;;;5092341;28;20479;-64
2022/09/29 01:03:18;;;;;;;143.80;135.93;;;9.00;99.90;;;;;;5092213;28;20386;-63
2022/09/29 01:06:09;;;;;;;143.30;135.40;;;9.00;99.90;;;;;;5091549;28;20374;-63
2022/09/29 01:08:56;;;;;;;137.70;130.10;;;8.90;99.90;;;;;;5094363;28;20499;-64
2022/09/29 01:11:22;;;;;;;144.38;136.40;;;8.90;99.90;;;;;;5074785;28;20435;-64
2022/09/29 01:13:49;;;;;;;141.45;133.57;;;8.90;99.90;;;;;;5092331;28;20725;-63
2022/09/29 01:16:15;;;;;;;148.93;140.43;;;8.80;99.90;;;;;;5074125;28;20394;-63
2022/09/29 01:18:42;;;;;;;143.45;135.23;;;8.80;99.90;;;;;;5074792;28;20447;-62
2022/09/29 01:21:10;;;;;;;144.23;136.13;;;8.80;99.90;;;;;;5076587;28;20398;-64
2022/09/29 01:23:56;;;;;;;141.00;133.00;;;8.80;99.90;;;;;;5075969;28;20397;-63
2022/09/29 01:26:43;;;;;;;143.52;135.57;;;8.80;99.90;;;;;;5093310;28;20416;-64
2022/09/29 01:29:24;;;;;;;139.50;131.63;;;8.80;99.90;;;;;;5091593;28;20673;-64
2022/09/29 01:32:03;;;;;;;150.07;141.80;;;8.70;99.90;;;;;;5072510;28;20393;-64
2022/09/29 01:34:56;;;;;;;146.00;137.98;;;8.70;99.90;;;;;;5073189;28;20381;-64
2022/09/29 01:37:45;;;;;;;150.95;142.65;;;8.70;99.90;;;;;;5072544;28;20658;-64
2022/09/29 01:40:16;;;;;;;149.88;141.65;;;8.70;99.90;;;;;;5073801;28;20464;-64
2022/09/29 01:42:54;;;;;;;150.35;141.95;;;8.70;99.90;;;;;;5073596;28;20402;-64
2022/09/29 01:45:31;;;;;;;152.40;144.05;;;8.70;99.90;;;;;;5073018;28;20394;-64
2022/09/29 01:48:05;;;;;;;146.73;138.57;;;8.70;99.90;;;;;;5074046;28;20447;-64
2022/09/29 01:50:42;;;;;;;149.35;141.07;;;8.60;99.90;;;;;;5092106;28;20409;-64
2022/09/29 01:53:17;;;;;;;146.95;138.75;;;8.60;99.90;;;;;;5093790;28;20382;-64
2022/09/29 01:55:49;;;;;;;147.45;139.20;;;8.60;99.90;;;;;;5074810;28;20433;-64
2022/09/29 01:58:31;;;;;;;157.93;149.05;;;8.60;99.90;;;;;;5072792;28;20459;-64
2022/09/29 02:01:02;;;;;;;160.35;151.48;;;8.60;99.90;;;;;;5092068;28;20417;-63
2022/09/29 02:03:27;;;;;;;161.98;153.07;;;8.60;99.90;;;;;;5075020;28;20472;-63
2022/09/29 02:06:00;;;;;;;154.70;146.27;;;8.60;99.90;;;;;;5075270;28;20471;-63
2022/09/29 02:08:41;;;;;;;159.32;150.48;;;8.60;99.90;;;;;;5082896;28;20805;-63
2022/09/29 02:11:12;;;;;;;160.05;151.25;;;8.50;99.90;;;;;;5089284;28;20382;-63
2022/09/29 02:13:49;;;;;;;159.27;150.50;;;8.50;99.90;;;;;;5090952;28;20473;-63
2022/09/29 02:16:18;;;;;;;154.45;145.93;;;8.40;99.90;;;;;;5090041;28;20394;-63
2022/09/29 02:19:12;;;;;;;160.23;151.50;;;8.40;99.90;;;;;;5090329;28;20609;-63
2022/09/29 02:21:38;;;;;;;158.70;150.07;;;8.40;99.90;;;;;;5089643;28;20402;-64
2022/09/29 02:24:03;;;;;;;155.80;147.20;;;8.40;99.90;;;;;;5092372;28;20421;-63
2022/09/29 02:26:36;;;;;;;167.30;158.03;;;8.30;99.90;;;;;;5091537;28;20405;-63
2022/09/29 02:29:03;;;;;;;159.07;150.48;;;8.30;99.90;;;;;;5091850;28;20385;-64
2022/09/29 02:31:30;;;;;;;165.13;156.05;;;8.40;99.90;;;;;;5092949;28;20716;-66
2022/09/29 02:33:56;;;;;;;168.88;159.65;;;8.30;99.90;;;;;;5092895;28;20941;-64
2022/09/29 02:36:42;;;;;;;163.98;154.93;;;8.30;99.90;;;;;;5092972;28;20785;-64
2022/09/29 02:39:13;;;;;;;162.27;153.38;;;8.30;99.90;;;;;;5092172;28;20414;-64
2022/09/29 02:41:53;;;;;;;158.95;150.20;;;8.20;99.90;;;;;;5091746;28;20719;-64
2022/09/29 02:44:33;;;;;;;161.73;152.90;;;8.20;99.90;;;;;;5091299;28;20682;-64
2022/09/29 02:47:30;;;;;;;161.68;152.93;;;8.20;99.90;;;;;;5092718;28;20467;-64
2022/09/29 02:50:07;;;;;;;156.37;147.83;;;8.20;99.90;;;;;;5091287;28;20378;-64
2022/09/29 02:53:02;;;;;;;161.10;152.25;;;8.20;99.90;;;;;;5091113;28;20389;-64
2022/09/29 02:55:50;;;;;;;161.85;153.05;;;8.20;99.90;;;;;;5091580;28;20384;-64
2022/09/29 02:58:24;;;;;;;164.90;155.85;;;8.20;99.90;;;;;;5091671;28;20689;-64
2022/09/29 03:00:51;;;;;;;160.43;151.68;;;8.20;99.90;;;;;;5091592;28;20444;-64
2022/09/29 03:03:17;;;;;;;163.70;154.80;;;8.10;99.90;;;;;;5091958;28;20389;-64
2022/09/29 03:05:42;;;;;;;165.68;156.77;;;8.10;99.90;;;;;;5090404;28;20378;-64
2022/09/29 03:08:08;;;;;;;163.07;154.20;;;8.10;99.90;;;;;;5091268;28;20497;-63
2022/09/29 03:10:33;;;;;;;166.00;157.10;;;8.10;99.90;;;;;;5094974;28;20828;-63
2022/09/29 03:12:59;;;;;;;162.13;153.27;;;8.10;99.90;;;;;;5094895;28;20390;-63
2022/09/29 03:15:25;;;;;;;162.65;153.80;;;8.10;99.90;;;;;;5093789;28;20398;-63
2022/09/29 03:17:55;;;;;;;161.17;152.60;;;8.10;99.90;;;;;;5092669;28;20397;-62
2022/09/29 03:20:20;;;;;;;159.02;150.35;;;8.10;99.90;;;;;;5093114;28;20406;-64
2022/09/29 03:22:46;;;;;;;156.67;148.27;;;8.10;99.90;;;;;;5094109;28;20658;-64
2022/09/29 03:25:13;;;;;;;155.13;146.80;;;8.10;99.90;;;;;;5095602;28;20447;-64
2022/09/29 03:27:38;;;;;;;162.65;153.82;;;8.00;99.90;;;;;;5094487;28;20397;-64
2022/09/29 03:30:05;;;;;;;156.57;147.90;;;8.00;99.90;;;;;;5095426;28;20531;-64
2022/09/29 03:32:30;;;;;;;161.02;152.25;;;8.00;99.90;;;;;;5094146;28;20382;-64
2022/09/29 03:34:56;;;;;;;161.05;152.32;;;8.00;99.90;;;;;;5094697;28;20392;-63
2022/09/29 03:37:21;;;;;;;158.27;149.73;;;8.00;99.90;;;;;;5094319;28;20382;-63
2022/09/29 03:39:47;;;;;;;159.93;151.30;;;8.00;99.90;;;;;;5093181;28;20374;-64
2022/09/29 03:42:12;;;;;;;160.63;151.82;;;8.00;99.90;;;;;;5091743;28;20568;-64
2022/09/29 03:44:38;;;;;;;158.13;149.63;;;7.90;99.90;;;;;;5093776;28;20420;-64
2022/09/29 03:47:03;;;;;;;160.23;151.53;;;7.90;99.90;;;;;;5092623;28;20390;-64
2022/09/29 03:49:29;;;;;;;162.60;153.70;;;7.90;99.90;;;;;;5094094;28;20693;-64
2022/09/29 03:51:55;;;;;;;163.30;154.52;;;7.90;99.90;;;;;;5094211;28;20612;-64
2022/09/29 03:54:20;;;;;;;167.18;158.02;;;7.90;99.90;;;;;;5093461;28;20670;-64
2022/09/29 03:56:46;;;;;;;165.57;156.57;;;7.80;99.90;;;;;;5093357;28;20469;-65
2022/09/29 03:59:13;;;;;;;166.60;157.47;;;7.80;99.90;;;;;;5093593;28;20389;-64
2022/09/29 04:01:39;;;;;;;165.57;156.65;;;7.90;99.90;;;;;;5090379;28;20841;-64
2022/09/29 04:04:05;;;;;;;169.90;160.70;;;7.90;99.90;;;;;;5092473;28;20382;-64
2022/09/29 04:06:31;;;;;;;168.43;159.23;;;7.90;99.90;;;;;;5092760;28;20727;-64
2022/09/29 04:08:56;;;;;;;163.80;154.97;;;7.90;99.90;;;;;;5091923;28;20410;-64
2022/09/29 04:11:22;;;;;;;168.85;159.63;;;7.90;99.90;;;;;;5092699;28;20394;-64
2022/09/29 04:13:48;;;;;;;162.20;153.43;;;7.90;99.90;;;;;;5091123;28;20386;-64
2022/09/29 04:16:13;;;;;;;160.27;151.67;;;7.90;99.90;;;;;;5087910;28;20433;-64
2022/09/29 04:18:39;;;;;;;164.70;155.70;;;7.90;99.90;;;;;;5084266;28;20671;-64
2022/09/29 04:21:06;;;;;;;169.73;160.43;;;7.80;99.90;;;;;;5082219;28;20987;-64
2022/09/29 04:23:32;;;;;;;168.45;159.35;;;7.80;99.90;;;;;;5083724;28;20840;-64
2022/09/29 04:25:58;;;;;;;159.18;150.52;;;7.80;99.90;;;;;;5085308;28;20373;-64
2022/09/29 04:28:24;;;;;;;158.23;149.70;;;7.80;99.90;;;;;;5085642;28;20590;-62
2022/09/29 04:30:50;;;;;;;154.65;146.25;;;7.80;99.90;;;;;;5086485;28;20390;-62
2022/09/29 04:33:16;;;;;;;156.27;147.77;;;7.80;99.90;;;;;;5088757;28;20385;-63
2022/09/29 04:35:41;;;;;;;156.57;148.03;;;7.80;99.90;;;;;;5087659;28;20390;-63
2022/09/29 04:38:07;;;;;;;152.57;144.03;;;7.80;99.90;;;;;;5089029;28;20489;-63
2022/09/29 04:40:34;;;;;;;155.40;146.85;;;7.80;99.90;;;;;;5089899;28;20408;-63
2022/09/29 04:42:59;;;;;;;162.85;154.02;;;7.80;99.90;;;;;;5089239;28;20866;-63
2022/09/29 04:45:25;;;;;;;147.75;139.60;;;7.80;99.90;;;;;;5090728;28;20420;-63
2022/09/29 04:47:50;;;;;;;151.57;143.17;;;7.80;99.90;;;;;;5090800;28;20436;-63
2022/09/29 04:50:16;;;;;;;146.03;138.17;;;7.70;99.90;;;;;;5089081;28;20951;-63
2022/09/29 04:52:42;;;;;;;148.18;140.15;;;7.80;99.90;;;;;;5086941;28;20439;-63
2022/09/29 04:55:10;;;;;;;140.68;133.13;;;7.80;99.90;;;;;;5088741;28;20653;-64
2022/09/29 04:57:36;;;;;;;137.45;129.77;;;7.80;99.90;;;;;;5087795;28;20473;-63
2022/09/29 05:00:04;;;;;;;134.02;126.30;;;7.70;99.90;;;;;;5085120;28;20492;-63
2022/09/29 05:02:29;;;;;;;146.13;138.15;;;7.70;99.90;;;;;;5083769;28;20374;-63
2022/09/29 05:04:55;;;;;;;142.27;134.33;;;7.70;99.90;;;;;;5085336;28;20444;-63
2022/09/29 05:07:20;;;;;;;151.63;143.30;;;7.80;99.90;;;;;;5086592;28;20510;-63
2022/09/29 05:09:46;;;;;;;148.18;140.10;;;7.80;99.90;;;;;;5065709;28;20389;-63
2022/09/29 05:12:11;;;;;;;156.27;147.67;;;7.90;99.90;;;;;;5066016;28;20382;-63
2022/09/29 05:14:37;;;;;;;146.30;138.27;;;7.80;99.90;;;;;;5065999;28;20385;-63
2022/09/29 05:17:03;;;;;;;157.07;148.35;;;7.90;99.90;;;;;;5064392;28;20562;-63
2022/09/29 05:19:30;;;;;;;153.07;144.52;;;7.90;99.90;;;;;;5081921;28;20476;-63
2022/09/29 05:21:57;;;;;;;157.90;149.30;;;7.90;99.90;;;;;;5065618;28;20459;-63
2022/09/29 05:24:23;;;;;;;150.85;142.57;;;7.90;99.90;;;;;;5083993;28;20433;-63
2022/09/29 05:26:48;;;;;;;159.60;150.80;;;7.90;99.90;;;;;;5085397;28;20417;-63
2022/09/29 05:29:14;;;;;;;154.82;146.52;;;7.90;99.90;;;;;;5084761;28;20373;-63
2022/09/29 05:31:40;;;;;;;159.23;150.63;;;8.00;99.90;;;;;;5065073;28;20399;-63
2022/09/29 05:34:05;;;;;;;156.07;147.48;;;8.00;99.90;;;;;;5083192;28;21030;-62
2022/09/29 05:36:31;;;;;;;150.43;142.20;;;8.00;99.90;;;;;;5066683;28;20650;-63
2022/09/29 05:38:56;;;;;;;155.77;147.17;;;8.00;99.90;;;;;;5066854;28;20385;-63
2022/09/29 05:41:22;;;;;;;157.00;148.43;;;7.90;99.90;;;;;;5065907;28;20389;-62
2022/09/29 05:43:48;;;;;;;153.53;144.90;;;7.90;99.90;;;;;;5064237;28;20382;-62
2022/09/29 05:46:15;;;;;;;152.30;143.55;;;7.90;99.90;;;;;;5081562;28;20786;-62
2022/09/29 05:48:42;;;;;;;150.23;141.88;;;7.90;99.90;;;;;;5065042;28;20389;-63
2022/09/29 05:51:10;;;;;;;151.07;142.55;;;7.80;99.90;;;;;;5062899;28;20730;-62
2022/09/29 05:53:39;;;;;;;151.13;142.90;;;7.80;99.90;;;;;;5082480;28;20373;-63
2022/09/29 05:56:10;;;;;;;145.85;137.82;;;7.90;99.90;;;;;;5066298;28;20422;-62
2022/09/29 05:58:37;;;;;;;154.43;145.57;;;7.90;99.90;;;;;;5067566;28;20463;-62
2022/09/29 06:01:07;;;;;;;150.02;141.82;;;7.90;99.90;;;;;;5066148;28;20600;-63
2022/09/29 06:03:34;;;;;;;154.38;145.90;;;8.00;99.90;;;;;;5065492;28;20702;-63
2022/09/29 06:06:05;;;;;;;155.77;146.88;;;7.90;99.90;;;;;;5064041;28;20471;-63
2022/09/29 06:08:30;;;;;;;142.10;134.20;;;7.80;99.90;;;;;;5074185;28;20805;-63
2022/09/29 06:11:05;;;;;;;152.20;143.63;;;7.70;99.90;;;;;;5085673;28;20389;-62
2022/09/29 06:13:31;;;;;;;150.18;141.85;;;7.80;99.90;;;;;;5082196;28;20687;-63
2022/09/29 06:15:58;;;;;;;157.50;148.43;;;7.80;99.90;;;;;;5083677;28;20667;-63
2022/09/29 06:18:24;;;;;;;158.93;150.10;;;7.80;99.90;;;;;;5083070;28;20409;-63
2022/09/29 06:20:49;;;;;;;162.03;152.87;;;7.90;99.90;;;;;;5082071;28;20401;-63
2022/09/29 06:23:15;;;;;;;164.93;155.83;;;7.90;99.90;;;;;;5079849;28;20447;-63
2022/09/29 06:25:40;;;;;;;153.05;144.52;;;7.90;99.90;;;;;;5080084;28;20804;-63
2022/09/29 06:28:06;;;;;;;153.70;145.10;;;7.90;99.90;;;;;;5075972;28;20425;-63
2022/09/29 06:30:31;;;;;;;155.17;146.53;;;8.00;99.90;;;;;;5073363;28;20851;-63
2022/09/29 06:32:57;;;;;;;166.63;157.43;;;8.10;99.90;;;;;;5073435;28;20382;-65
2022/09/29 06:38:06;;;;;;;159.83;150.27;;;8.20;99.90;;;;;;5076751;28;20389;-63
2022/09/29 06:40:32;;;;;;;164.23;154.80;;;8.10;99.90;;;;;;5079758;28;20397;-62
2022/09/29 06:42:58;;;;;;;159.23;149.70;;;8.20;99.90;;;;;;5082489;28;20450;-63
2022/09/29 06:45:23;;;;;;;161.15;151.85;;;8.20;99.90;;;;;;5089945;28;20408;-63
2022/09/29 06:47:49;;;;;;;169.07;159.52;;;8.20;99.90;;;;;;5088178;28;20378;-63
2022/09/29 06:50:14;;;;;;;166.27;156.33;;;8.20;99.90;;;;;;5087409;28;21766;-63
2022/09/29 06:52:40;;;;;;;164.20;154.63;;;8.20;99.90;;;;;;5087853;28;20385;-63
2022/09/29 06:55:06;;;;;;;177.82;167.93;;;8.20;99.90;;;;;;5086836;28;20476;-63
2022/09/29 06:57:31;;;;;;;176.93;166.63;;;8.30;99.90;;;;;;5083713;28;20457;-64
2022/09/29 06:59:57;;;;;;;174.00;163.85;;;8.30;99.90;;;;;;5081102;28;20378;-62
2022/09/29 07:02:22;;;;;;;175.07;165.07;;;8.40;99.90;;;;;;5079862;28;20670;-62
2022/09/29 07:04:48;;;;;;;189.13;178.43;;;8.40;99.90;;;;;;5077509;28;20378;-62
2022/09/29 07:07:14;;;;;;;179.05;168.70;;;8.40;99.90;;;;;;5077084;28;20803;-62
2022/09/29 07:09:41;;;;;;;187.52;176.57;;;8.60;99.90;;;;;;5073835;28;20589;-62
2022/09/29 07:12:07;;;;;;;186.00;175.07;;;8.60;99.90;;;;;;5074841;28;20386;-62
2022/09/29 07:14:32;;;;;;;189.25;178.43;;;8.60;99.90;;;;;;5057083;28;20470;-62
2022/09/29 07:16:59;;;;;;;187.10;176.27;;;8.70;99.90;;;;;;5053400;28;20398;-62
2022/09/29 07:19:24;;;;;;;181.35;171.15;;;8.70;99.90;;;;;;5054438;28;20741;-60
2022/09/29 07:21:50;;;;;;;184.20;173.47;;;8.70;99.90;;;;;;5055330;28;20481;-62
2022/09/29 07:24:16;;;;;;;181.07;170.27;;;8.80;99.90;;;;;;5054842;28;20393;-62
2022/09/29 07:26:42;;;;;;;184.68;173.90;;;8.80;99.90;;;;;;5055179;28;20685;-61
2022/09/29 07:29:08;;;;;;;198.93;187.55;;;8.80;99.90;;;;;;5055132;28;20696;-62
2022/09/29 07:31:33;;;;;;;198.57;187.23;;;8.80;99.90;;;;;;5057464;28;20440;-62
2022/09/29 07:33:59;;;;;;;187.82;176.98;;;8.90;99.90;;;;;;5052432;28;20749;-61
2022/09/29 07:36:24;;;;;;;196.30;184.90;;;9.00;99.90;;;;;;5052001;28;20527;-62
2022/09/29 07:38:51;;;;;;;193.10;182.13;;;9.10;99.90;;;;;;5071618;28;20590;-62
2022/09/29 07:41:19;;;;;;;186.40;175.88;;;9.10;99.90;;;;;;5051979;28;20829;-63
2022/09/29 07:43:45;;;;;;;197.35;185.85;;;9.20;99.90;;;;;;5053496;28;20567;-63
2022/09/29 07:46:11;;;;;;;198.37;187.00;;;9.20;99.90;;;;;;5067814;28;20765;-63
2022/09/29 07:48:37;;;;;;;183.27;172.93;;;9.30;99.90;;;;;;5054686;28;20374;-63
2022/09/29 07:51:12;;;;;;;180.55;169.85;;;9.30;99.90;;;;;;5056839;28;20421;-63
2022/09/29 07:53:38;;;;;;;180.10;169.53;;;9.30;99.90;;;;;;5055179;28;20537;-63
2022/09/29 07:56:09;;;;;;;208.98;197.13;;;9.30;99.90;;;;;;5054262;28;20669;-63
2022/09/29 07:58:36;;;;;;;206.80;195.13;;;9.30;99.90;;;;;;5054582;28;20544;-63
2022/09/29 08:01:05;;;;;;;188.67;177.77;;;9.30;99.90;;;;;;5054943;28;20473;-63
2022/09/29 08:03:32;;;;;;;181.00;170.25;;;9.30;99.90;;;;;;5076467;28;20385;-63
2022/09/29 08:05:58;;;;;;;195.70;184.35;;;9.40;99.90;;;;;;5057172;28;20747;-63
2022/09/29 08:08:24;;;;;;;194.95;183.60;;;9.40;99.90;;;;;;5063798;28;20627;-63
2022/09/29 08:10:49;;;;;;;190.65;179.40;;;9.40;99.90;;;;;;5075320;28;20651;-62
2022/09/29 08:13:16;;;;;;;197.53;186.10;;;9.40;99.90;;;;;;5076242;28;20382;-63
2022/09/29 08:15:41;;;;;;;200.85;189.02;;;9.40;99.90;;;;;;5079384;28;20681;-63
2022/09/29 08:18:07;;;;;;;192.32;181.38;;;9.40;99.90;;;;;;5076877;28;20705;-63
2022/09/29 08:20:35;;;;;;;193.63;182.40;;;9.40;99.90;;;;;;5074857;28;20406;-63
2022/09/29 08:23:01;;;;;;;182.97;172.07;;;9.40;99.90;;;;;;5074679;28;20751;-61
2022/09/29 08:25:26;;;;;;;185.82;174.80;;;9.40;99.90;;;;;;5077244;28;20817;-63
2022/09/29 08:27:52;;;;;;;224.30;212.00;;;9.50;99.90;;;;;;5075698;28;20390;-62
2022/09/29 08:30:18;;;;;;;209.33;197.53;;;9.50;99.90;;;;;;5075001;28;20622;-62
2022/09/29 08:32:50;;;;;;;184.93;174.33;;;9.50;99.90;;;;;;5075866;28;20617;-61
2022/09/29 08:35:15;;;;;;;194.73;183.85;;;9.60;99.90;;;;;;5075431;28;20763;-61
2022/09/29 08:37:41;;;;;;;205.37;193.97;;;9.70;99.90;;;;;;5076058;28;20643;-62
2022/09/29 08:40:07;;;;;;;175.07;164.90;;;9.80;99.90;;;;;;5077076;28;20466;-61
2022/09/29 08:42:54;;;;;;;175.13;164.93;;;9.90;99.90;;;;;;5073912;28;20428;-62
2022/09/29 08:45:33;;;;;;;184.15;173.35;;;9.90;99.90;;;;;;5081600;28;20394;-63
2022/09/29 08:48:21;;;;;;;180.32;170.02;;;10.00;99.90;;;;;;5079576;28;20381;-64
2022/09/29 08:51:14;;;;;;;173.35;163.77;;;10.10;99.90;;;;;;5079949;28;20432;-64
2022/09/29 08:53:44;;;;;;;153.30;144.32;;;10.30;99.90;;;;;;5080932;28;20680;-63
2022/09/29 08:56:16;;;;;;;165.23;155.63;;;10.20;99.90;;;;;;5079384;28;20609;-63
2022/09/29 08:58:42;;;;;;;172.88;163.02;;;10.20;99.90;;;;;;5079339;28;20382;-60
2022/09/29 09:01:34;;;;;;;172.00;162.02;;;10.30;99.90;;;;;;5078272;28;20420;-59
2022/09/29 09:04:02;;;;;;;169.73;160.10;;;10.40;99.90;;;;;;5080594;28;20539;-59
2022/09/29 09:06:47;;;;;;;159.73;150.80;;;10.60;99.90;;;;;;5077410;28;20791;-63
2022/09/29 09:09:23;;;;;;;159.23;150.07;;;10.70;99.90;;;;;;5079434;28;20609;-64
2022/09/29 09:12:05;;;;;;;164.25;154.90;;;10.70;99.90;;;;;;5079385;28;20951;-64
2022/09/29 09:14:57;;;;;;;153.32;144.60;;;10.80;99.90;;;;;;5080542;28;20461;-63
2022/09/29 09:17:48;;;;;;;148.00;139.63;;;10.80;99.90;;;;;;5079528;28;20397;-63
2022/09/29 09:20:30;;;;;;;145.80;137.25;;;10.80;99.90;;;;;;5083432;28;20386;-63
2022/09/29 09:22:58;;;;;;;144.63;136.35;;;10.90;99.90;;;;;;5083074;28;20396;-64
2022/09/29 09:25:33;;;;;;;130.70;123.33;;;11.00;99.90;;;;;;5085754;28;20390;-64
2022/09/29 09:28:21;;;;;;;145.98;137.80;;;11.10;99.90;;;;;;5084742;28;20382;-64
2022/09/29 09:30:52;;;;;;;138.50;130.65;;;11.10;99.90;;;;;;5088002;28;20455;-64
2022/09/29 09:33:26;;;;;;;128.70;121.43;;;11.10;99.90;;;;;;5086795;28;20891;-64
2022/09/29 09:36:01;;;;;;;134.57;126.93;;;11.10;99.90;;;;;;5082893;28;20389;-63
2022/09/29 09:38:43;;;;;;;136.07;128.57;;;11.10;99.90;;;;;;5078903;28;20390;-65
2022/09/29 09:41:15;;;;;;;127.78;120.60;;;11.10;99.90;;;;;;5077873;28;20467;-64
2022/09/29 09:43:46;;;;;;;115.93;109.30;;;11.20;99.90;;;;;;5076019;28;20662;-64
2022/09/29 09:46:23;;;;;;;124.82;117.82;;;11.20;99.90;;;;;;5076236;28;20669;-64
2022/09/29 09:49:12;;;;;;;101.45;95.68;;;11.20;99.90;;;;;;5075867;28;20471;-63
2022/09/29 09:52:10;;;;;;;112.60;106.18;;;11.20;99.90;;;;;;5073314;28;20518;-63
2022/09/29 09:54:45;;;;;;;104.22;98.25;;;11.20;99.90;;;;;;5074116;28;20613;-64
2022/09/29 09:57:29;;;;;;;114.53;107.88;;;11.30;99.90;;;;;;5074914;28;20677;-63
2022/09/29 10:00:12;;;;;;;112.30;105.80;;;11.30;99.90;;;;;;5074988;28;20385;-64
2022/09/29 10:02:46;;;;;;;103.55;97.55;;;11.30;99.90;;;;;;5073787;28;20405;-64
2022/09/29 10:05:15;;;;;;;113.93;107.43;;;11.30;99.90;;;;;;5077468;28;20378;-64
2022/09/29 10:07:41;;;;;;;124.93;117.78;;;11.30;99.90;;;;;;5078462;28;20421;-64
2022/09/29 10:10:21;;;;;;;104.82;98.78;;;11.30;99.90;;;;;;5078724;28;20715;-63
2022/09/29 10:12:55;;;;;;;115.90;109.22;;;11.30;99.90;;;;;;5077008;28;20410;-64
2022/09/29 10:15:26;;;;;;;105.47;99.53;;;11.40;99.90;;;;;;5074394;28;20425;-63
2022/09/29 10:18:10;;;;;;;113.45;107.07;;;11.40;99.90;;;;;;5074906;28;20378;-63
2022/09/29 10:20:37;;;;;;;118.07;111.22;;;11.40;99.90;;;;;;5071706;28;20390;-63
2022/09/29 10:23:22;;;;;;;128.00;120.82;;;11.40;99.90;;;;;;5073753;28;20382;-63
2022/09/29 10:26:08;;;;;;;124.47;117.57;;;11.50;99.90;;;;;;5078156;28;20366;-62
2022/09/29 10:28:51;;;;;;;124.40;117.40;;;11.60;99.90;;;;;;5076179;28;20378;-63
2022/09/29 10:31:28;;;;;;;108.22;101.95;;;11.80;99.90;;;;;;5079258;28;20556;-62
2022/09/29 10:34:15;;;;;;;107.03;101.00;;;12.00;99.90;;;;;;5080495;28;20389;-62
2022/09/29 10:37:04;;;;;;;99.35;93.85;;;12.10;99.90;;;;;;5077664;28;20506;-62
2022/09/29 10:39:41;;;;;;;110.35;104.18;;;12.10;99.90;;;;;;5076714;28;20682;-62
2022/09/29 10:42:26;;;;;;;100.32;94.68;;;12.10;99.90;;;;;;5071069;28;20409;-62
2022/09/29 10:45:12;;;;;;;97.38;92.00;;;12.00;99.90;;;;;;5071354;28;20683;-62
2022/09/29 10:47:39;;;;;;;86.95;82.05;;;11.90;99.90;;;;;;5069916;28;20403;-62
2022/09/29 10:50:20;;;;;;;88.72;83.60;;;11.90;99.90;;;;;;5064268;28;20378;-62
2022/09/29 10:52:56;;;;;;;101.93;96.43;;;11.90;99.90;;;;;;5061240;28;20940;-62
2022/09/29 10:55:27;;;;;;;92.00;86.88;;;11.80;99.90;;;;;;5063674;28;20644;-62
2022/09/29 10:57:56;;;;;;;99.57;94.18;;;11.80;99.90;;;;;;5062830;28;20397;-63
2022/09/29 11:00:25;;;;;;;99.97;94.30;;;11.80;99.90;;;;;;5058890;28;20525;-62
2022/09/29 11:02:52;;;;;;;110.07;103.88;;;11.80;99.90;;;;;;5056829;28;20393;-62
2022/09/29 11:05:22;;;;;;;94.97;89.70;;;11.70;99.90;;;;;;5061631;28;20401;-62
2022/09/29 11:07:49;;;;;;;97.88;92.63;;;11.70;99.90;;;;;;5062508;28;20899;-63
2022/09/29 11:10:36;;;;;;;121.97;115.25;;;11.70;99.90;;;;;;5061601;28;20453;-62
2022/09/29 11:13:33;;;;;;;87.95;83.22;;;11.70;99.90;;;;;;5061954;28;20378;-62
2022/09/29 11:16:32;;;;;;;93.25;88.15;;;11.70;99.90;;;;;;5062226;28;21057;-62
2022/09/29 11:19:08;;;;;;;103.05;97.38;;;11.80;99.90;;;;;;5065182;28;20377;-62
2022/09/29 11:22:05;;;;;;;99.33;94.00;;;11.70;99.90;;;;;;5067014;28;20594;-62
2022/09/29 11:24:49;;;;;;;97.47;92.07;;;11.70;99.90;;;;;;5064191;28;20512;-62
2022/09/29 11:27:17;;;;;;;96.70;91.43;;;11.70;99.90;;;;;;5063967;28;20635;-62
2022/09/29 11:30:00;;;;;;;95.10;89.97;;;11.70;99.90;;;;;;5066475;28;20432;-62
2022/09/29 11:32:29;;;;;;;101.63;96.05;;;11.80;99.90;;;;;;5073279;28;20735;-62
2022/09/29 11:35:16;;;;;;;96.03;90.65;;;11.90;99.90;;;;;;5070751;28;20370;-62
2022/09/29 11:37:55;;;;;;;105.63;99.72;;;11.80;99.90;;;;;;5067321;28;20509;-63
2022/09/29 11:40:24;;;;;;;102.40;96.73;;;11.80;99.90;;;;;;5066898;28;20453;-63
2022/09/29 11:43:18;;;;;;;102.85;97.13;;;11.90;99.90;;;;;;5069436;28;20488;-63
2022/09/29 11:45:59;;;;;;;102.70;96.97;;;11.90;99.90;;;;;;5073461;28;20679;-63
2022/09/29 11:48:45;;;;;;;97.07;91.53;;;12.00;99.90;;;;;;5070154;28;20526;-63
2022/09/29 11:51:43;;;;;;;102.75;97.05;;;12.00;99.90;;;;;;5069491;28;20390;-62
2022/09/29 11:54:48;;;;;;;112.88;106.72;;;12.00;99.90;;;;;;5067711;28;20462;-62
2022/09/29 11:57:43;;;;;;;87.17;82.00;;;12.00;99.90;;;;;;5066906;28;20425;-63
2022/09/29 12:00:14;;;;;;;103.82;97.85;;;11.90;99.90;;;;;;5066835;28;20524;-63
2022/09/29 12:02:48;;;;;;;106.63;100.65;;;11.90;99.90;;;;;;5072452;28;20485;-62
2022/09/29 12:05:43;;;;;;;105.25;99.40;;;11.90;99.90;;;;;;5075137;28;20513;-62
2022/09/29 12:08:41;;;;;;;104.53;98.70;;;11.90;99.90;;;;;;5073704;28;20994;-62
2022/09/29 12:11:30;;;;;;;92.53;87.10;;;12.00;99.90;;;;;;5074785;28;20482;-62
2022/09/29 12:14:14;;;;;;;99.13;93.53;;;12.00;99.90;;;;;;5072745;28;20473;-62
2022/09/29 12:16:49;;;;;;;104.32;98.45;;;12.00;99.90;;;;;;5073511;28;20409;-62
2022/09/29 12:19:19;;;;;;;101.95;96.20;;;12.00;99.90;;;;;;5074195;28;20382;-62
2022/09/29 12:21:49;;;;;;;115.47;108.88;;;11.90;99.90;;;;;;5075313;28;20492;-62
2022/09/29 12:24:37;;;;;;;92.40;87.05;;;12.00;99.90;;;;;;5077569;28;20606;-62
2022/09/29 12:27:10;;;;;;;102.57;96.70;;;12.00;99.90;;;;;;5080787;28;20535;-62
2022/09/29 12:29:49;;;;;;;94.43;89.00;;;12.10;99.90;;;;;;5078873;28;20441;-62
2022/09/29 12:32:27;;;;;;;100.88;95.05;;;12.10;99.90;;;;;;5069317;28;20493;-62
2022/09/29 12:35:21;;;;;;;99.43;93.72;;;12.10;99.90;;;;;;5069380;28;20617;-62
2022/09/29 12:37:56;;;;;;;90.90;85.57;;;12.10;99.90;;;;;;5068699;28;20425;-62
2022/09/29 12:40:52;;;;;;;95.20;89.70;;;12.10;99.90;;;;;;5071325;28;20642;-62
2022/09/29 12:43:36;;;;;;;101.65;96.10;;;12.10;99.90;;;;;;5041746;28;20397;-62